Augusta Springs, Virginia
Current Conditions -  °F | °C
As of 12:15 PM on Thursday 30 Oct 2014 (Local Time) from KW13 Reporting Station
Overcast Overcast  
Wind Chill: 47°   Ceiling: 4400
Heat Index: 50°   Visibility: 10mi
Dew Point: 34°   Wind: 7mph
Humidity: 55%   Direction: 10°N
Pressure: 30.08"   Gusts: NA
Location:  38.1°N, 79.32°W
Report Text: KW13 301615Z AUTO 01006KT 10SM OVC044 10/01 A3008 RMK AO1 T00980012
Loading
Personal Weather Stations






























Interactive Weather Map
Tropical Storm Tracking
New forecast layout! Learn more

10-Day Weather Forecast

Advertisements
Track Severe Weather on mobile